Date,TemperatureHighF,TemperatureAvgF,TemperatureLowF,DewpointHighF,DewpointAvgF,DewpointLowF,HumidityHigh,HumidityAvg,HumidityLow,PressureMaxIn,PressureMinIn,WindSpeedMaxMPH,WindSpeedAvgMPH,GustSpeedMaxMPH,PrecipitationSumIn
2013-3-1,17,11,7,10,7,3,89,84,72,30.06,29.54,5,1,9,0.00
2013-3-2,20,12,6,15,9,4,92,88,79,30.21,30.06,5,1,6,0.00
2013-3-3,27,16,7,19,12,4,92,84,70,30.46,30.21,5,1,8,0.00
2013-3-4,32,21,11,23,15,7,89,77,61,30.51,30.33,5,0,8,0.00
2013-3-5,36,27,21,20,16,13,70,63,52,30.32,29.97,5,0,8,0.00
2013-3-6,23,17,11,13,9,5,77,70,62,29.97,29.90,5,1,7,0.00
2013-3-7,38,28,15,28,19,9,81,69,56,29.90,29.47,12,5,23,0.00
2013-3-8,46,38,30,30,25,20,69,61,52,29.66,29.51,9,5,19,0.00
2013-3-9,39,30,19,29,24,15,93,78,66,30.04,29.67,8,3,12,0.00
2013-3-10,28,23,18,27,20,14,96,88,74,30.32,30.05,8,2,13,0.00
2013-3-11,25,16,11,18,12,8,92,84,72,30.60,30.33,5,2,8,0.00
2013-3-12,25,15,9,10,6,-2,79,67,50,30.62,30.36,6,1,7,0.00
2013-3-13,15,8,-2,3,-5,-14,65,56,47,30.38,30.19,16,8,35,0.00
2013-3-14,18,6,-4,0,-8,-16,58,53,44,30.28,30.13,15,8,31,0.00
2013-3-15,24,9,0,2,-6,-11,60,51,36,30.22,29.93,12,6,25,0.00
2013-3-16,31,14,3,13,0,-8,60,53,44,30.23,30.06,9,4,15,0.00
2013-3-17,18,11,1,5,0,-7,73,61,51,30.36,30.20,7,1,10,0.00
2013-3-18,20,10,1,7,0,-5,77,66,53,30.20,29.97,6,2,10,0.00
2013-3-19,15,9,4,3,-2,-6,69,61,50,30.20,30.09,6,1,12,0.00
2013-3-20,16,4,-7,4,-6,-15,74,65,52,30.10,29.89,6,3,10,0.00
2013-3-21,23,11,2,14,5,-2,86,77,58,30.16,30.03,8,4,13,0.00
2013-3-22,31,22,15,17,10,4,63,58,51,30.06,29.73,9,6,16,0.00
2013-3-23,26,5,-3,18,0,-7,92,81,65,30.13,29.76,9,2,18,0.00
2013-3-24,8,3,-4,3,-2,-9,86,78,68,30.09,29.83,6,1,8,0.00
2013-3-25,8,5,2,5,1,-3,87,85,80,29.83,29.69,13,3,21,0.00
2013-3-26,4,-1,-5,-3,-6,-12,85,76,58,30.25,29.84,10,6,22,0.00
2013-3-27,17,0,-11,3,-8,-17,79,68,51,30.33,30.14,7,2,11,0.00
2013-3-28,36,18,5,18,6,-5,69,60,45,30.16,29.93,7,2,10,0.00
2013-3-29,48,33,23,25,19,12,65,56,40,29.95,29.81,7,3,11,0.00
2013-3-30,40,28,16,24,18,11,82,66,52,30.22,29.94,8,2,12,0.00
2013-3-31,39,33,27,31,25,19,92,74,58,30.29,30.19,6,2,8,0.00